EW4907 Weather Reports


Display with metric or nautical units.
time (UTC)temp
F
wind
direction
speed
MPH
gust
MPH
rain 1hr
in
rain 24hr
in
rain mn
in
humidity
%
barometer
mb
20220525044549 61 20 18.0 34.0 0.57 0.62 0.62 52 1008.8
20220525043050 60 19 15.0 30.0 0.57 0.62 0.62 56 1008.2
20220525041545 60 335 23.0 43.0 0.35 0.39 0.39 71 1009.2
20220525040040 72 325 17.0 28.0 0.00 0.04 0.04 68 1008.8
20220525034541 77 68 4.0 8.0 0.00 0.04 0.04 71 1006.2
20220525033039 77 67 5.0 8.0 0.00 0.04 0.04 71 1005.7
20220525031544 77 65 6.0 9.0 0.00 0.04 0.04 71 1005.3
20220525030040 77 89 5.0 7.0 0.00 0.04 0.04 71 1004.8
20220525024538 77 131 4.0 11.0 0.00 0.04 0.04 70 1004.5
20220525023040 77 124 5.0 10.0 0.00 0.04 0.04 69 1004.7
20220525021537 78 118 5.0 11.0 0.01 0.04 0.04 68 1004.5
20220525020036 78 104 7.0 9.0 0.01 0.04 0.04 67 1004.6
20220525014539 78 92 4.0 8.0 0.01 0.05 0.04 67 1004.8
20220525013034 78 123 4.0 7.0 0.01 0.05 0.04 66 1004.7
20220525011540 79 118 4.0 13.0 0.00 0.04 0.03 65 1004.2
20220525010034 79 124 4.0 14.0 0.00 0.04 0.03 64 1003.8
20220525004533 80 139 7.0 20.0 0.00 0.04 0.03 63 1003.9
20220525003032 80 173 6.0 16.0 0.00 0.04 0.03 62 1003.7
20220525001532 81 148 8.0 15.0 0.00 0.04 0.03 62 1003.6
20220525000048 82 142 7.0 21.0 0.00 0.04 0.03 60 1003.1
20220524234542 82 140 9.0 21.0 0.00 0.05 0.03 59 1003.3
20220524233026 82 148 8.0 20.0 0.00 0.05 0.03 59 1003.7
20220524231529 82 162 8.0 17.0 0.00 0.05 0.03 59 1003.9
20220524230034 82 152 9.0 17.0 0.00 0.05 0.03 58 1003.8
20220524224539 83 127 4.0 13.0 0.00 0.05 0.03 60 1003.9
20220524223022 83 133 7.0 15.0 0.00 0.05 0.03 59 1004.0
20220524221520 82 139 7.0 17.0 0.00 0.05 0.03 61 1004.6
20220524220019 83 164 5.0 15.0 0.00 0.05 0.03 59 1004.9
20220524214534 82 152 5.0 17.0 0.00 0.05 0.03 60 1005.3
20220524213010 82 131 7.0 16.0 0.00 0.05 0.03 60 1005.6
20220524211506 81 105 7.0 19.0 0.00 0.05 0.03 61 1005.9
20220524210011 81 159 9.0 17.0 0.00 0.05 0.03 61 1006.0
20220524204511 81 174 11.0 22.0 0.00 0.05 0.03 62 1006.1
20220524203003 80 143 7.0 16.0 0.00 0.05 0.03 63 1006.2
20220524201506 80 148 9.0 18.0 0.00 0.05 0.03 63 1006.5
20220524200059 80 127 10.0 20.0 0.00 0.05 0.03 63 1006.7
20220524194558 80 176 11.0 17.0 0.00 0.05 0.03 62 1006.8
20220524193058 80 159 10.0 24.0 0.00 0.05 0.03 62 1006.9
20220524191605 81 82 9.0 17.0 0.00 0.05 0.03 61 1006.8
20220524190100 81 139 8.0 20.0 0.00 0.05 0.03 62 1006.9
20220524184557 81 198 8.0 18.0 0.00 0.05 0.03 63 1006.9
20220524183100 81 165 8.0 21.0 0.00 0.05 0.03 63 1007.0
20220524181559 81 147 9.0 16.0 0.01 0.05 0.03 60 1007.1
20220524180049 80 127 10.0 19.0 0.01 0.05 0.03 62 1007.2
20220524174549 79 135 9.0 19.0 0.01 0.05 0.03 63 1007.2
20220524173051 79 165 8.0 19.0 0.01 0.05 0.03 63 1007.0
20220524171546 80 129 9.0 17.0 0.00 0.04 0.02 63 1007.1
20220524170049 79 150 7.0 21.0 0.00 0.04 0.02 64 1007.3
20220524164554 79 160 8.0 21.0 0.00 0.04 0.02 66 1007.5
20220524163038 78 198 8.0 18.0 0.00 0.04 0.02 67 1007.9
20220524161537 78 172 6.0 17.0 0.00 0.04 0.02 69 1008.2
20220524160036 77 156 6.0 17.0 0.00 0.04 0.02 70 1008.6
20220524154534 77 162 7.0 16.0 0.00 0.04 0.02 74 1008.7
20220524153031 76 121 6.0 18.0 0.00 0.04 0.02 77 1008.5
20220524151529 75 157 7.0 13.0 0.00 0.04 0.02 80 1008.7
20220524150031 73 152 8.0 14.0 0.00 0.04 0.02 80 1008.7
20220524144524 73 151 6.0 12.0 0.00 0.04 0.02 79 1008.9
20220524143022 72 139 4.0 11.0 0.00 0.04 0.02 73 1009.0
20220524141521 72 130 5.0 9.0 0.00 0.04 0.02 64 1009.2
20220524140021 71 141 4.0 7.0 0.00 0.04 0.02 57 1009.1
20220524134520 71 148 4.0 9.0 0.00 0.04 0.02 56 1009.3
20220524133019 71 115 3.0 7.0 0.00 0.04 0.02 54 1009.1
20220524131522 70 82 5.0 9.0 0.00 0.04 0.02 52 1008.7
20220524130027 70 129 2.0 9.0 0.00 0.04 0.02 51 1008.3
20220524124517 70 134 2.0 5.0 0.00 0.04 0.02 50 1008.2
20220524123016 70 117 2.0 7.0 0.00 0.04 0.02 50 1008.0
20220524121516 70 128 4.0 8.0 0.00 0.04 0.02 50 1007.9
20220524120018 70 132 4.0 8.0 0.00 0.04 0.02 49 1008.0
20220524114519 70 114 7.0 13.0 0.00 0.04 0.02 49 1007.8
20220524113013 69 113 5.0 9.0 0.00 0.04 0.02 49 1007.8
20220524111510 69 94 4.0 11.0 0.00 0.04 0.02 49 1008.0
20220524110009 69 96 6.0 11.0 0.00 0.04 0.02 49 1008.5
20220524104506 69 114 8.0 12.0 0.00 0.04 0.02 48 1008.7
20220524103002 70 135 5.0 11.0 0.00 0.04 0.02 47 1008.9
20220524101559 70 87 6.0 12.0 0.00 0.04 0.02 46 1008.9
20220524100112 70 124 5.0 11.0 0.00 0.04 0.02 45 1008.9
20220524094554 70 96 4.0 9.0 0.00 0.04 0.02 45 1009.5
20220524093051 70 109 4.0 9.0 0.00 0.04 0.02 44 1009.9
20220524091550 70 155 5.0 12.0 0.00 0.04 0.02 44 1010.1
20220524090049 70 110 5.0 11.0 0.00 0.04 0.02 44 1010.0
20220524084547 70 145 7.0 12.0 0.00 0.04 0.02 44 1010.1
20220524083044 70 129 6.0 11.0 0.00 0.04 0.02 44 1009.9
20220524081551 70 129 6.0 11.0 0.00 0.04 0.02 44 1009.6
20220524080044 70 125 6.0 11.0 0.01 0.04 0.02 44 1009.8
20220524074541 70 119 6.0 12.0 0.01 0.04 0.02 44 1009.8
20220524073043 70 131 4.0 9.0 0.02 0.04 0.02 45 1010.0
20220524071535 70 122 5.0 10.0 0.01 0.03 0.01 46 1010.1
20220524070040 70 108 6.0 12.0 0.01 0.03 0.01 48 1010.2
20220524064531 71 145 6.0 14.0 0.01 0.03 0.01 57 1010.8
20220524063029 72 135 6.0 16.0 0.00 0.02 0.00 77 1011.2
20220524061522 73 146 11.0 16.0 0.00 0.02 0.00 78 1011.4
20220524060030 73 153 5.0 9.0 0.00 0.02 0.00 77 1011.3
20220524054525 73 105 6.0 9.0 0.00 0.02 0.00 78 1011.3
20220524053016 73 135 5.0 11.0 0.00 0.02 0.00 78 1011.6
20220524051518 73 167 5.0 12.0 0.00 0.02 0.00 79 1011.7
20220524050011 73 120 5.0 10.0 0.00 0.02 0.00 79 1011.8